Ibiza Aeropuerto en Baleares

latitud = 38° 52' 35''N | longitud = 0014° 23' 04''E
6 metros sobre el nivel del mar |

Fecha, hora, temperatura, viento dirección y velocidad, humedad y presión.

  • 23-04-2018 10:00:00 | 20.50°C | Nordeste |23.00 km/h | 54.00% | 1016.10 hPa
  • 23-04-2018 09:00:00 | 18.10°C | Nordeste |17.00 km/h | 65.00% | 1016.00 hPa
  • 23-04-2018 08:00:00 | 17.10°C | Nordeste |17.00 km/h | 67.00% | 1015.70 hPa
  • 23-04-2018 07:00:00 | 16.10°C | Nordeste |17.00 km/h | 74.00% | 1015.10 hPa
  • 23-04-2018 06:00:00 | 15.30°C | Nordeste |15.00 km/h | 79.00% | 1014.70 hPa
  • 23-04-2018 05:00:00 | 15.90°C | Nordeste |17.00 km/h | 78.00% | 1015.00 hPa
  • 23-04-2018 04:00:00 | 15.70°C | Nordeste |15.00 km/h | 80.00% | 1015.30 hPa
  • 23-04-2018 03:00:00 | 16.00°C | Nordeste |16.00 km/h | 78.00% | 1015.60 hPa
  • 23-04-2018 02:00:00 | 16.80°C | Nordeste |20.00 km/h | 73.00% | 1015.90 hPa
  • 23-04-2018 01:00:00 | 16.70°C | Nordeste |19.00 km/h | 76.00% | 1016.00 hPa
  • 23-04-2018 00:00:00 | 16.90°C | Nordeste |16.00 km/h | 74.00% | 1016.10 hPa
  • 22-04-2018 23:00:00 | 16.50°C | Nordeste |17.00 km/h | 81.00% | 1016.00 hPa
  • 22-04-2018 22:00:00 | 16.70°C | Nordeste |15.00 km/h | 79.00% | 1015.50 hPa
  • 22-04-2018 21:00:00 | 16.90°C | Nordeste |15.00 km/h | 77.00% | 1015.10 hPa
  • 22-04-2018 20:00:00 | 17.50°C | Nordeste |16.00 km/h | 76.00% | 1014.80 hPa
  • 22-04-2018 19:00:00 | 18.60°C | Nordeste |20.00 km/h | 71.00% | 1015.00 hPa
  • 22-04-2018 18:00:00 | 19.30°C | Nordeste |20.00 km/h | 69.00% | 1015.20 hPa
  • 22-04-2018 17:00:00 | 19.70°C | Nordeste |24.00 km/h | 65.00% | 1015.20 hPa
  • 22-04-2018 16:00:00 | 20.40°C | Nordeste |24.00 km/h | 61.00% | 1015.60 hPa
  • 22-04-2018 15:00:00 | 20.30°C | Nordeste |22.00 km/h | 63.00% | 1016.30 hPa
  • 22-04-2018 14:00:00 | 20.30°C | Nordeste |22.00 km/h | 64.00% | 1016.20 hPa
  • 22-04-2018 13:00:00 | 19.70°C | Nordeste |19.00 km/h | 67.00% | 1016.70 hPa
  • 22-04-2018 12:00:00 | 19.50°C | Nordeste |23.00 km/h | 66.00% | 1016.60 hPa
  • 22-04-2018 11:00:00 | 19.70°C | Nordeste |19.00 km/h | 62.00% | 1016.50 hPa
    • Datos gráficos mensuales de Ibiza Aeropuerto: